createdAt,value
2018-12-15T00:01:53.634Z,25.03
2018-12-15T00:04:32.996Z,25.77
2018-12-15T00:07:09.784Z,23.27
2018-12-15T00:12:20.649Z,26.60
2018-12-15T00:15:00.070Z,26.73
2018-12-15T00:17:40.733Z,25.17
2018-12-15T00:20:15.807Z,26.67
2018-12-15T00:22:56.756Z,27.80
2018-12-15T00:25:36.666Z,28.07
2018-12-15T00:28:11.128Z,24.10
2018-12-15T00:30:49.229Z,26.87
2018-12-15T00:33:30.210Z,25.73
2018-12-15T00:36:08.715Z,26.13
2018-12-15T00:38:50.341Z,26.13
2018-12-15T00:41:30.471Z,27.40
2018-12-15T00:44:08.383Z,27.67
2018-12-15T00:46:48.338Z,28.83
2018-12-15T00:49:23.504Z,25.97
2018-12-15T00:52:01.731Z,28.00
2018-12-15T00:57:25.603Z,27.90
2018-12-15T01:00:04.815Z,28.10
2018-12-15T01:02:41.302Z,26.73
2018-12-15T01:05:16.639Z,26.70
2018-12-15T01:07:56.280Z,28.23
2018-12-15T01:10:45.373Z,27.93
2018-12-15T01:13:23.567Z,27.83
2018-12-15T01:15:58.571Z,25.77
2018-12-15T01:18:35.250Z,28.90
2018-12-15T01:21:16.781Z,28.57
2018-12-15T01:23:51.242Z,29.17
2018-12-15T01:26:29.388Z,28.83
2018-12-15T01:29:06.915Z,27.27
2018-12-15T01:31:42.984Z,28.07
2018-12-15T01:34:18.639Z,29.27
2018-12-15T01:37:03.547Z,27.77
2018-12-15T01:39:43.132Z,28.73
2018-12-15T01:42:21.272Z,27.60
2018-12-15T01:44:57.110Z,28.13
2018-12-15T01:47:38.414Z,28.37
2018-12-15T01:50:17.127Z,28.23
2018-12-15T01:52:51.562Z,27.43
2018-12-15T01:55:30.258Z,26.50
2018-12-15T01:58:14.534Z,29.10
2018-12-15T02:00:54.265Z,27.80
2018-12-15T02:03:30.435Z,28.77
2018-12-15T02:06:08.503Z,28.33
2018-12-15T02:08:47.909Z,27.73
2018-12-15T02:11:35.323Z,27.00
2018-12-15T02:14:10.396Z,31.83
2018-12-15T02:16:45.282Z,32.83
2018-12-15T02:19:26.267Z,29.27
2018-12-15T02:22:05.166Z,31.93
2018-12-15T02:24:44.192Z,30.57
2018-12-15T02:27:23.053Z,32.97
2018-12-15T02:29:59.390Z,29.53
2018-12-15T02:32:38.452Z,30.77
2018-12-15T02:35:16.784Z,30.03
2018-12-15T02:37:56.745Z,29.10
2018-12-15T02:40:37.676Z,29.73
2018-12-15T02:43:24.734Z,28.30
2018-12-15T02:45:59.581Z,30.37
2018-12-15T02:48:40.569Z,29.83
2018-12-15T02:51:19.214Z,30.23
2018-12-15T02:53:55.643Z,30.80
2018-12-15T02:56:35.127Z,33.83
2018-12-15T02:59:11.223Z,31.13
2018-12-15T03:01:51.718Z,29.80
2018-12-15T03:04:40.277Z,30.80
2018-12-15T03:07:14.605Z,29.70
2018-12-15T03:09:49.230Z,32.70
2018-12-15T03:12:29.840Z,33.43
2018-12-15T03:15:05.865Z,32.30
2018-12-15T03:17:49.019Z,33.43
2018-12-15T03:20:27.497Z,33.53
2018-12-15T03:23:05.395Z,31.00
2018-12-15T03:25:43.555Z,37.00
2018-12-15T03:28:22.496Z,34.30
2018-12-15T03:30:57.669Z,36.07
2018-12-15T03:33:36.921Z,36.70
2018-12-15T03:36:14.807Z,30.10
2018-12-15T03:38:55.893Z,31.27
2018-12-15T03:41:36.700Z,31.73
2018-12-15T03:44:14.538Z,31.03
2018-12-15T03:46:52.740Z,31.03
2018-12-15T03:49:33.621Z,33.47
2018-12-15T03:52:14.048Z,31.30
2018-12-15T03:54:52.329Z,31.53
2018-12-15T03:57:31.816Z,29.33
2018-12-15T04:00:10.531Z,28.07
2018-12-15T04:02:50.637Z,30.50
2018-12-15T04:05:31.157Z,29.37
2018-12-15T04:08:09.748Z,29.87
2018-12-15T04:10:50.205Z,29.03
2018-12-15T04:13:28.552Z,29.97
2018-12-15T04:16:08.935Z,31.00
2018-12-15T04:18:46.275Z,31.80
2018-12-15T04:21:23.018Z,32.33
2018-12-15T04:24:04.426Z,30.80
2018-12-15T04:26:39.231Z,29.53
2018-12-15T04:29:19.815Z,31.53
2018-12-15T04:31:54.782Z,29.80
2018-12-15T04:34:29.940Z,30.13
2018-12-15T04:37:11.154Z,29.60
2018-12-15T04:39:48.056Z,33.03
2018-12-15T04:42:25.772Z,34.23
2018-12-15T04:45:00.264Z,34.07
2018-12-15T04:47:39.585Z,32.53
2018-12-15T04:50:14.243Z,33.63
2018-12-15T04:52:49.700Z,33.97
2018-12-15T04:55:24.027Z,33.03
2018-12-15T04:58:00.950Z,31.20
2018-12-15T05:00:40.097Z,32.97
2018-12-15T05:05:47.214Z,30.87
2018-12-15T05:08:29.010Z,32.23
2018-12-15T05:11:04.081Z,30.67
2018-12-15T05:13:39.880Z,32.13
2018-12-15T05:16:17.623Z,30.10
2018-12-15T05:18:57.137Z,32.63
2018-12-15T05:21:33.470Z,31.23
2018-12-15T05:24:12.044Z,31.57
2018-12-15T05:26:52.291Z,29.40
2018-12-15T05:29:33.466Z,29.50
2018-12-15T05:32:08.349Z,27.83
2018-12-15T05:34:42.670Z,28.47
2018-12-15T05:37:22.303Z,25.83
2018-12-15T05:40:03.498Z,26.47
2018-12-15T05:42:44.744Z,25.43
2018-12-15T05:45:19.787Z,28.03
2018-12-15T05:47:58.229Z,25.17
2018-12-15T05:50:36.181Z,25.33
2018-12-15T05:53:11.067Z,24.40
2018-12-15T05:55:47.671Z,26.17
2018-12-15T05:58:23.861Z,25.67
2018-12-15T06:01:14.837Z,24.73
2018-12-15T06:03:53.730Z,22.40
2018-12-15T06:06:32.411Z,23.63
2018-12-15T06:11:44.308Z,19.87
2018-12-15T06:14:23.407Z,22.13
2018-12-15T06:17:03.931Z,18.97
2018-12-15T06:19:42.649Z,19.07
2018-12-15T06:22:23.678Z,17.67
2018-12-15T06:24:58.156Z,20.27
2018-12-15T06:27:33.274Z,16.60
2018-12-15T06:30:09.421Z,16.87
2018-12-15T06:32:51.082Z,16.27
2018-12-15T06:35:26.998Z,16.77
2018-12-15T06:38:08.121Z,21.30
2018-12-15T06:40:46.030Z,20.53
2018-12-15T06:43:26.818Z,20.97
2018-12-15T06:46:06.929Z,22.03
2018-12-15T06:48:44.599Z,22.70
2018-12-15T06:51:21.611Z,24.43
2018-12-15T06:53:59.879Z,25.77
2018-12-15T06:56:41.105Z,26.00
2018-12-15T06:59:22.407Z,23.83
2018-12-15T07:02:03.008Z,21.07
2018-12-15T07:04:39.460Z,23.60
2018-12-15T07:07:26.011Z,18.97
2018-12-15T07:10:07.378Z,21.30
2018-12-15T07:12:42.782Z,20.93
2018-12-15T07:15:20.538Z,22.43
2018-12-15T07:18:01.275Z,24.53
2018-12-15T07:20:38.948Z,25.03
2018-12-15T07:23:18.037Z,24.27
2018-12-15T07:25:52.828Z,22.43
2018-12-15T07:28:27.570Z,22.33
2018-12-15T07:31:02.149Z,22.57
2018-12-15T07:33:37.082Z,22.90
2018-12-15T07:36:11.465Z,24.03
2018-12-15T07:38:45.836Z,21.37
2018-12-15T07:41:20.311Z,22.53
2018-12-15T07:43:54.762Z,21.67
2018-12-15T07:46:39.426Z,22.50
2018-12-15T07:49:14.354Z,22.93
2018-12-15T07:51:48.865Z,23.20
2018-12-15T07:54:30.991Z,23.80
2018-12-15T08:00:09.305Z,21.37
2018-12-15T08:02:52.432Z,19.90
2018-12-15T08:05:31.971Z,23.20
2018-12-15T08:08:13.031Z,21.67
2018-12-15T08:10:58.858Z,24.87
2018-12-15T08:13:42.495Z,19.13
2018-12-15T08:16:17.005Z,21.40
2018-12-15T08:18:57.897Z,19.07
2018-12-15T08:21:40.786Z,20.63
2018-12-15T08:24:19.163Z,22.00
2018-12-15T08:26:55.372Z,21.67
2018-12-15T08:29:47.415Z,21.80
2018-12-15T08:32:40.312Z,20.67
2018-12-15T08:35:22.784Z,20.43
2018-12-15T08:37:58.903Z,21.23
2018-12-15T08:40:40.054Z,19.27
2018-12-15T08:43:15.068Z,22.43
2018-12-15T08:54:39.415Z,25.03
2018-12-15T08:57:18.174Z,24.97
2018-12-15T09:00:04.231Z,25.47
2018-12-15T09:05:36.471Z,27.70
2018-12-15T09:08:11.135Z,30.90
2018-12-15T09:11:03.994Z,28.00
2018-12-15T09:13:40.424Z,27.60
2018-12-15T09:16:15.042Z,31.13
2018-12-15T09:19:01.532Z,29.43
2018-12-15T09:24:35.831Z,27.70
2018-12-15T09:27:10.459Z,25.37
2018-12-15T09:32:41.603Z,25.63
2018-12-15T09:35:20.156Z,23.17
2018-12-15T09:38:11.221Z,22.67
2018-12-15T09:40:51.884Z,23.67
2018-12-15T09:43:32.718Z,22.97
2018-12-15T09:46:22.087Z,26.57
2018-12-15T09:48:57.991Z,24.80
2018-12-15T09:51:40.854Z,26.47
2018-12-15T09:54:22.154Z,26.53
2018-12-15T09:57:01.265Z,24.03
2018-12-15T09:59:38.948Z,27.00
2018-12-15T10:02:14.073Z,26.70
2018-12-15T10:04:48.990Z,27.00
2018-12-15T10:07:23.298Z,27.83
2018-12-15T10:09:57.941Z,26.30
2018-12-15T10:12:33.387Z,25.83
2018-12-15T10:15:08.760Z,26.13
2018-12-15T10:17:43.316Z,24.27
2018-12-15T10:20:18.054Z,25.67
2018-12-15T10:22:52.365Z,25.10
2018-12-15T10:25:27.615Z,22.47
2018-12-15T10:28:02.182Z,24.87
2018-12-15T10:30:41.934Z,25.23
2018-12-15T10:33:16.343Z,25.87
2018-12-15T10:35:50.979Z,25.37
2018-12-15T10:38:25.808Z,25.20
2018-12-15T10:41:00.727Z,22.73
2018-12-15T10:43:35.463Z,24.57
2018-12-15T10:46:10.022Z,22.83
2018-12-15T10:48:45.208Z,23.40
2018-12-15T10:51:19.711Z,24.73
2018-12-15T10:53:54.483Z,23.90
2018-12-15T10:56:29.704Z,20.87
2018-12-15T10:59:04.227Z,21.77
2018-12-15T11:01:39.156Z,22.97
2018-12-15T11:04:13.806Z,22.60
2018-12-15T11:06:48.723Z,21.70
2018-12-15T11:09:24.094Z,22.27
2018-12-15T11:11:59.446Z,23.20
2018-12-15T11:14:34.527Z,22.37
2018-12-15T11:17:09.111Z,21.77
2018-12-15T11:19:43.514Z,22.27
2018-12-15T11:22:18.110Z,23.87
2018-12-15T11:24:52.802Z,22.93
2018-12-15T11:27:27.727Z,20.97
2018-12-15T11:30:07.902Z,20.53
2018-12-15T11:32:42.452Z,20.73
2018-12-15T11:35:17.383Z,19.40
2018-12-15T11:37:52.119Z,18.93
2018-12-15T11:40:26.853Z,20.23
2018-12-15T11:43:01.310Z,20.93
2018-12-15T11:45:36.211Z,19.00
2018-12-15T11:48:10.740Z,19.63
2018-12-15T11:50:45.274Z,20.10
2018-12-15T11:53:19.611Z,18.90
2018-12-15T11:55:54.523Z,20.87
2018-12-15T11:58:29.459Z,18.40
2018-12-15T12:01:05.122Z,21.10
2018-12-15T12:03:39.519Z,19.70
2018-12-15T12:06:14.050Z,19.10
2018-12-15T12:08:49.672Z,17.37
2018-12-15T12:11:24.062Z,16.60
2018-12-15T12:14:00.413Z,18.30
2018-12-15T12:16:35.186Z,16.80
2018-12-15T12:19:10.111Z,19.33
2018-12-15T12:21:44.903Z,22.93
2018-12-15T12:24:20.281Z,17.83
2018-12-15T12:26:54.743Z,17.83
2018-12-15T12:29:29.435Z,18.30
2018-12-15T12:32:04.235Z,19.27
2018-12-15T12:34:38.626Z,19.73
2018-12-15T12:37:12.981Z,18.13
2018-12-15T12:39:47.509Z,19.97
2018-12-15T12:42:22.433Z,19.10
2018-12-15T12:44:57.492Z,17.57
2018-12-15T12:47:32.259Z,18.80
2018-12-15T12:50:07.790Z,19.07
2018-12-15T12:52:42.180Z,18.80
2018-12-15T12:55:16.782Z,20.17
2018-12-15T12:57:52.161Z,17.67
2018-12-15T13:00:27.451Z,19.37
2018-12-15T13:03:01.777Z,17.80
2018-12-15T13:05:36.406Z,18.10
2018-12-15T13:08:10.975Z,18.50
2018-12-15T13:10:45.534Z,17.60
2018-12-15T13:13:20.416Z,19.33
2018-12-15T13:15:54.728Z,20.33
2018-12-15T13:18:29.829Z,21.07
2018-12-15T13:21:04.923Z,19.47
2018-12-15T13:23:39.245Z,21.63
2018-12-15T13:26:14.082Z,22.53
2018-12-15T13:28:48.639Z,21.07
2018-12-15T13:31:23.343Z,19.37
2018-12-15T13:33:58.250Z,20.53
2018-12-15T13:36:33.275Z,19.60
2018-12-15T13:39:08.751Z,20.37
2018-12-15T13:41:43.707Z,21.57
2018-12-15T13:44:18.063Z,22.63
2018-12-15T13:46:52.546Z,22.40
2018-12-15T13:49:27.688Z,21.20
2018-12-15T13:52:02.554Z,21.93
2018-12-15T13:54:37.019Z,22.30
2018-12-15T13:57:11.926Z,25.10
2018-12-15T13:59:46.350Z,29.17
2018-12-15T14:02:20.816Z,24.07
2018-12-15T14:04:55.559Z,22.63
2018-12-15T14:07:30.111Z,24.23
2018-12-15T14:10:07.254Z,23.43
2018-12-15T14:12:41.582Z,22.23
2018-12-15T14:15:16.402Z,22.47
2018-12-15T14:17:51.284Z,24.83
2018-12-15T14:20:26.538Z,23.93
2018-12-15T14:23:01.201Z,24.30
2018-12-15T14:25:38.211Z,26.53
2018-12-15T14:28:12.836Z,26.60
2018-12-15T14:30:47.316Z,26.50
2018-12-15T14:33:22.415Z,25.53
2018-12-15T14:35:58.197Z,25.20
2018-12-15T14:38:33.153Z,24.73
2018-12-15T14:41:07.707Z,24.10
2018-12-15T14:43:44.059Z,24.23
2018-12-15T14:46:20.417Z,25.20
2018-12-15T14:48:55.958Z,23.27
2018-12-15T14:51:30.735Z,23.57
2018-12-15T14:54:05.528Z,24.97
2018-12-15T14:56:40.083Z,26.47
2018-12-15T14:59:18.278Z,24.50
2018-12-15T15:01:53.111Z,24.83
2018-12-15T15:04:27.707Z,23.40
2018-12-15T15:10:00.011Z,22.77
2018-12-15T15:12:34.983Z,24.40
2018-12-15T15:15:10.294Z,25.50
2018-12-15T15:20:41.831Z,26.33
2018-12-15T15:23:34.352Z,24.07
2018-12-15T15:26:09.474Z,27.77
2018-12-15T15:28:44.680Z,24.40
2018-12-15T15:31:19.526Z,25.73
2018-12-15T15:33:54.053Z,24.50
2018-12-15T15:36:28.559Z,24.17
2018-12-15T15:39:04.633Z,22.07
2018-12-15T15:41:39.163Z,22.20
2018-12-15T15:44:14.279Z,23.00
2018-12-15T15:46:48.766Z,24.73
2018-12-15T15:49:23.637Z,24.30
2018-12-15T15:51:57.991Z,22.23
2018-12-15T15:54:33.834Z,24.53
2018-12-15T15:57:09.530Z,23.30
2018-12-15T15:59:44.470Z,23.50
2018-12-15T16:02:18.910Z,23.67
2018-12-15T16:04:54.951Z,23.77
2018-12-15T16:07:29.484Z,25.20
2018-12-15T16:10:05.685Z,25.87
2018-12-15T16:12:40.624Z,23.47
2018-12-15T16:15:16.300Z,24.10
2018-12-15T16:17:51.255Z,26.73
2018-12-15T16:20:43.296Z,26.40
2018-12-15T16:23:19.482Z,24.13
2018-12-15T16:25:54.088Z,24.43
2018-12-15T16:28:28.495Z,25.43
2018-12-15T16:31:03.508Z,26.97
2018-12-15T16:33:37.942Z,25.23
2018-12-15T16:36:12.866Z,23.53
2018-12-15T16:38:47.174Z,25.87
2018-12-15T16:41:22.060Z,24.27
2018-12-15T16:43:56.364Z,23.43
2018-12-15T16:46:33.764Z,25.80
2018-12-15T16:49:08.469Z,25.53
2018-12-15T16:51:42.794Z,24.30
2018-12-15T16:54:17.755Z,25.10
2018-12-15T16:56:52.811Z,26.77
2018-12-15T16:59:27.754Z,23.87
2018-12-15T17:02:02.430Z,24.40
2018-12-15T17:04:36.875Z,25.53
2018-12-15T17:07:12.598Z,26.63
2018-12-15T17:09:48.374Z,23.03
2018-12-15T17:12:23.085Z,22.70
2018-12-15T17:14:57.628Z,22.33
2018-12-15T17:17:32.523Z,21.73
2018-12-15T17:20:10.031Z,23.63
2018-12-15T17:22:44.659Z,22.00
2018-12-15T17:25:19.643Z,22.17
2018-12-15T17:27:54.566Z,21.37
2018-12-15T17:30:29.029Z,19.00
2018-12-15T17:33:04.438Z,18.27
2018-12-15T17:35:39.674Z,19.33
2018-12-15T17:38:14.521Z,18.40
2018-12-15T17:40:57.156Z,17.40
2018-12-15T17:43:31.930Z,17.67
2018-12-15T17:46:06.475Z,17.77
2018-12-15T17:48:41.080Z,16.80
2018-12-15T17:51:15.611Z,18.40
2018-12-15T17:53:50.318Z,17.20
2018-12-15T17:56:24.782Z,17.97
2018-12-15T17:58:59.343Z,18.20
2018-12-15T18:01:34.698Z,17.43
2018-12-15T18:04:09.291Z,18.23
2018-12-15T18:06:43.026Z,16.87
2018-12-15T18:09:18.019Z,17.47
2018-12-15T18:11:53.469Z,17.73
2018-12-15T18:14:28.426Z,16.60
2018-12-15T18:17:03.559Z,17.27
2018-12-15T18:19:38.660Z,18.40
2018-12-15T18:22:13.519Z,16.20
2018-12-15T18:24:48.517Z,18.10
2018-12-15T18:27:23.211Z,18.23
2018-12-15T18:30:05.610Z,16.80
2018-12-15T18:35:36.499Z,16.83
2018-12-15T18:38:11.187Z,17.53
2018-12-15T18:40:47.011Z,18.10
2018-12-15T18:43:21.356Z,17.80
2018-12-15T18:45:56.638Z,18.30
2018-12-15T18:48:31.128Z,18.97
2018-12-15T18:51:05.533Z,17.23
2018-12-15T18:53:39.998Z,18.53
2018-12-15T18:56:14.913Z,18.63
2018-12-15T18:58:50.410Z,19.23
2018-12-15T19:01:25.744Z,17.73
2018-12-15T19:04:00.904Z,18.70
2018-12-15T19:06:35.571Z,18.37
2018-12-15T19:09:10.675Z,18.90
2018-12-15T19:11:45.619Z,19.23
2018-12-15T19:14:20.166Z,19.87
2018-12-15T19:16:54.934Z,21.47
2018-12-15T19:19:29.389Z,19.97
2018-12-15T19:22:04.199Z,19.90
2018-12-15T19:24:38.560Z,21.03
2018-12-15T19:27:13.500Z,18.87
2018-12-15T19:29:48.166Z,19.53
2018-12-15T19:32:22.618Z,19.23
2018-12-15T19:34:57.140Z,17.53
2018-12-15T19:37:31.626Z,19.30
2018-12-15T19:40:07.426Z,18.10
2018-12-15T19:42:41.952Z,18.40
2018-12-15T19:45:17.080Z,18.57
2018-12-15T19:47:51.418Z,18.40
2018-12-15T19:50:26.139Z,19.97
2018-12-15T19:53:00.645Z,18.03
2018-12-15T19:55:35.790Z,20.23
2018-12-15T19:58:11.180Z,18.03
2018-12-15T20:00:45.837Z,19.90
2018-12-15T20:03:20.979Z,20.13
2018-12-15T20:05:56.007Z,19.77
2018-12-15T20:08:31.290Z,19.80
2018-12-15T20:11:05.691Z,18.90
2018-12-15T20:13:40.033Z,21.93
2018-12-15T20:16:14.695Z,19.97
2018-12-15T20:18:49.276Z,21.80
2018-12-15T20:21:24.390Z,19.93
2018-12-15T20:23:59.062Z,17.93
2018-12-15T20:26:33.634Z,20.20
2018-12-15T20:29:08.382Z,22.07
2018-12-15T20:31:43.474Z,21.07
2018-12-15T20:34:17.993Z,21.83
2018-12-15T20:36:52.771Z,20.07
2018-12-15T20:39:27.062Z,20.63
2018-12-15T20:42:01.402Z,22.03
2018-12-15T20:44:41.716Z,22.57
2018-12-15T20:47:13.711Z,22.13
2018-12-15T20:49:48.115Z,22.47
2018-12-15T20:52:22.458Z,21.63
2018-12-15T20:54:57.231Z,22.83
2018-12-15T20:57:31.717Z,25.77
2018-12-15T21:00:08.623Z,23.53
2018-12-15T21:02:43.213Z,26.23
2018-12-15T21:05:17.747Z,24.80
2018-12-15T21:07:53.016Z,27.23
2018-12-15T21:10:27.451Z,25.43
2018-12-15T21:13:01.758Z,25.20
2018-12-15T21:15:40.635Z,23.97
2018-12-15T21:18:15.542Z,24.20
2018-12-15T21:20:50.007Z,25.63
2018-12-15T21:23:24.743Z,25.57
2018-12-15T21:25:59.339Z,26.23
2018-12-15T21:28:33.995Z,26.67
2018-12-15T21:31:08.925Z,25.27
2018-12-15T21:33:43.387Z,26.83
2018-12-15T21:36:18.706Z,25.90
2018-12-15T21:38:53.992Z,26.47
2018-12-15T21:41:28.733Z,26.37
2018-12-15T21:44:04.349Z,24.03
2018-12-15T21:46:38.790Z,27.63
2018-12-15T21:49:13.719Z,24.87
2018-12-15T21:51:48.435Z,25.43
2018-12-15T21:54:23.085Z,24.50
2018-12-15T21:56:57.856Z,25.70
2018-12-15T21:59:32.412Z,24.27
2018-12-15T22:02:07.620Z,25.93
2018-12-15T22:04:44.911Z,26.57
2018-12-15T22:07:19.207Z,26.43
2018-12-15T22:09:53.688Z,29.43
2018-12-15T22:12:28.395Z,29.10
2018-12-15T22:15:03.943Z,26.27
2018-12-15T22:17:38.361Z,29.13
2018-12-15T22:20:13.554Z,33.57
2018-12-15T22:22:48.022Z,32.37
2018-12-15T22:25:22.408Z,28.73
2018-12-15T22:27:57.385Z,29.50
2018-12-15T22:30:32.379Z,30.80
2018-12-15T22:33:07.281Z,31.77
2018-12-15T22:35:42.275Z,31.03
2018-12-15T22:38:17.042Z,30.40
2018-12-15T22:40:51.951Z,30.10
2018-12-15T22:43:26.780Z,29.37
2018-12-15T22:46:01.792Z,29.23
2018-12-15T22:48:41.004Z,36.00
2018-12-15T22:51:15.858Z,44.73
2018-12-15T22:53:50.747Z,47.57
2018-12-15T22:56:25.423Z,43.40
2018-12-15T22:59:00.303Z,41.73
2018-12-15T23:01:40.375Z,40.23
2018-12-15T23:04:15.709Z,42.30
2018-12-15T23:06:50.386Z,41.07
2018-12-15T23:09:24.783Z,36.13
2018-12-15T23:12:00.521Z,37.87
2018-12-15T23:14:35.359Z,33.27
2018-12-15T23:17:10.554Z,37.60
2018-12-15T23:19:44.995Z,35.17
2018-12-15T23:22:19.411Z,34.83
2018-12-15T23:24:54.038Z,37.97
2018-12-15T23:27:30.359Z,42.97
2018-12-15T23:30:07.344Z,41.63
2018-12-15T23:32:42.490Z,45.40
2018-12-15T23:35:17.587Z,39.23
2018-12-15T23:37:52.186Z,43.63
2018-12-15T23:40:27.258Z,41.60
2018-12-15T23:43:02.298Z,44.40
2018-12-15T23:45:37.338Z,45.20
2018-12-15T23:48:12.462Z,45.13
2018-12-15T23:50:46.978Z,45.17
2018-12-15T23:53:22.064Z,43.20
2018-12-15T23:55:56.457Z,32.73
2018-12-15T23:58:30.826Z,35.20
